createdAt,value
2022-07-29T00:00:01.382Z,95140.94
2022-07-29T00:02:28.980Z,95155.78
2022-07-29T00:04:55.670Z,95161.16
2022-07-29T00:07:22.344Z,95163.75
2022-07-29T00:09:51.562Z,95152.47
2022-07-29T00:12:26.318Z,95161.53
2022-07-29T00:14:55.415Z,95154.72
2022-07-29T00:17:22.434Z,95161.00
2022-07-29T00:19:49.110Z,95163.00
2022-07-29T00:22:15.750Z,95153.75
2022-07-29T00:24:42.362Z,95159.09
2022-07-29T00:27:09.110Z,95159.91
2022-07-29T00:29:35.833Z,95173.94
2022-07-29T00:32:03.473Z,95170.72
2022-07-29T00:34:48.939Z,95177.50
2022-07-29T00:37:15.545Z,95185.34
2022-07-29T00:39:42.159Z,95190.09
2022-07-29T00:42:09.194Z,95176.34
2022-07-29T00:44:40.546Z,95168.06
2022-07-29T00:47:08.519Z,95170.31
2022-07-29T00:49:35.991Z,95178.34
2022-07-29T00:52:04.286Z,95170.31
2022-07-29T00:54:31.308Z,95176.09
2022-07-29T00:57:01.504Z,95173.34
2022-07-29T00:59:35.028Z,95170.81
2022-07-29T01:02:04.152Z,95167.56
2022-07-29T01:04:32.518Z,95172.81
2022-07-29T01:07:01.615Z,95156.28
2022-07-29T01:09:43.230Z,95150.25
2022-07-29T01:12:21.091Z,95152.53
2022-07-29T01:14:49.780Z,95152.28
2022-07-29T01:17:24.201Z,95129.47
2022-07-29T01:20:19.824Z,95147.75
2022-07-29T01:22:58.389Z,95129.69
2022-07-29T01:26:05.277Z,95125.66
2022-07-29T01:28:53.788Z,95124.69
2022-07-29T01:31:36.639Z,95124.69
2022-07-29T01:34:12.252Z,95125.91
2022-07-29T01:36:47.963Z,95132.41
2022-07-29T01:39:42.479Z,95131.13
2022-07-29T01:42:12.175Z,95136.38
2022-07-29T01:45:11.076Z,95131.91
2022-07-29T01:47:47.611Z,95136.91
2022-07-29T01:50:18.779Z,95120.56
2022-07-29T01:53:01.286Z,95117.28
2022-07-29T01:55:36.184Z,95120.00
2022-07-29T01:58:06.375Z,95125.53
2022-07-29T02:00:35.163Z,95118.22
2022-07-29T02:03:05.245Z,95119.47
2022-07-29T02:05:34.351Z,95122.47
2022-07-29T02:08:03.013Z,95108.16
2022-07-29T02:10:32.361Z,95105.91
2022-07-29T02:13:00.439Z,95117.91
2022-07-29T02:15:29.791Z,95122.41
2022-07-29T02:18:01.207Z,95121.94
2022-07-29T02:20:29.924Z,95109.19
2022-07-29T02:22:58.284Z,95107.69
2022-07-29T02:25:36.796Z,95110.22
2022-07-29T02:28:06.200Z,95111.97
2022-07-29T02:30:34.072Z,95096.94
2022-07-29T02:33:01.882Z,95089.19
2022-07-29T02:35:29.339Z,95094.75
2022-07-29T02:38:21.599Z,95101.03
2022-07-29T02:40:50.843Z,95103.22
2022-07-29T02:43:19.830Z,95107.53
2022-07-29T02:45:51.682Z,95103.53
2022-07-29T02:48:24.347Z,95095.78
2022-07-29T02:50:56.646Z,95085.22
2022-07-29T02:53:28.122Z,95079.97
2022-07-29T02:56:00.016Z,95100.53
2022-07-29T02:58:38.220Z,95098.56
2022-07-29T03:01:13.438Z,95096.59
2022-07-29T03:03:45.904Z,95095.59
2022-07-29T03:06:37.831Z,95097.63
2022-07-29T03:09:05.003Z,95101.38
2022-07-29T03:11:45.885Z,95100.88
2022-07-29T03:14:20.489Z,95096.88
2022-07-29T03:16:48.645Z,95101.91
2022-07-29T03:19:16.041Z,95098.91
2022-07-29T03:21:42.747Z,95108.91
2022-07-29T03:24:10.766Z,95105.13
2022-07-29T03:26:39.296Z,95106.19
2022-07-29T03:29:05.923Z,95103.91
2022-07-29T03:31:33.722Z,95103.16
2022-07-29T03:34:01.021Z,95108.66
2022-07-29T03:36:27.874Z,95108.91
2022-07-29T03:38:55.642Z,95121.44
2022-07-29T03:41:24.065Z,95115.41
2022-07-29T03:43:52.621Z,95107.19
2022-07-29T03:46:24.332Z,95107.19
2022-07-29T03:48:56.024Z,95124.47
2022-07-29T03:51:31.580Z,95128.47
2022-07-29T03:54:00.736Z,95126.72
2022-07-29T03:56:29.928Z,95113.69
2022-07-29T03:58:57.111Z,95112.09
2022-07-29T04:01:24.961Z,95112.13
2022-07-29T04:03:52.471Z,95112.84
2022-07-29T04:06:19.204Z,95106.63
2022-07-29T04:08:45.916Z,95119.84
2022-07-29T04:11:13.816Z,95116.56
2022-07-29T04:13:40.409Z,95108.75
2022-07-29T04:16:07.277Z,95114.78
2022-07-29T04:18:34.077Z,95106.47
2022-07-29T04:21:01.867Z,95111.91
2022-07-29T04:23:33.453Z,95116.88
2022-07-29T04:26:02.132Z,95116.84
2022-07-29T04:28:29.147Z,95118.56
2022-07-29T04:30:55.816Z,95111.97
2022-07-29T04:33:22.531Z,95106.47
2022-07-29T04:35:52.689Z,95135.66
2022-07-29T04:38:23.151Z,95126.06
2022-07-29T04:40:49.964Z,95134.59
2022-07-29T04:43:16.919Z,95138.44
2022-07-29T04:45:49.530Z,95128.69
2022-07-29T04:48:16.161Z,95136.63
2022-07-29T04:50:43.172Z,95137.69
2022-07-29T04:53:09.862Z,95147.72
2022-07-29T04:55:38.887Z,95145.00
2022-07-29T04:58:05.896Z,95131.13
2022-07-29T05:00:33.603Z,95145.00
2022-07-29T05:03:00.663Z,95143.22
2022-07-29T05:05:27.632Z,95139.03
2022-07-29T05:07:54.272Z,95121.78
2022-07-29T05:10:20.943Z,95145.31
2022-07-29T05:12:47.700Z,95146.19
2022-07-29T05:15:14.656Z,95143.44
2022-07-29T05:17:41.596Z,95143.34
2022-07-29T05:20:09.304Z,95151.78
2022-07-29T05:22:36.225Z,95156.72
2022-07-29T05:25:08.887Z,95146.59
2022-07-29T05:27:36.941Z,95159.88
2022-07-29T05:30:04.165Z,95148.22
2022-07-29T05:32:30.837Z,95148.44
2022-07-29T05:34:57.476Z,95144.78
2022-07-29T05:37:24.130Z,95152.13
2022-07-29T05:39:57.158Z,95157.91
2022-07-29T05:42:25.291Z,95157.28
2022-07-29T05:44:52.452Z,95167.13
2022-07-29T05:47:19.770Z,95175.03
2022-07-29T05:49:47.131Z,95167.75
2022-07-29T05:52:14.437Z,95170.50
2022-07-29T05:54:41.208Z,95171.69
2022-07-29T05:57:08.399Z,95167.56
2022-07-29T05:59:38.536Z,95163.34
2022-07-29T06:02:06.249Z,95168.91
2022-07-29T06:04:34.679Z,95173.31
2022-07-29T06:07:01.467Z,95166.06
2022-07-29T06:09:29.262Z,95168.47
2022-07-29T06:11:56.082Z,95166.13
2022-07-29T06:14:22.749Z,95180.38
2022-07-29T06:16:49.418Z,95174.16
2022-07-29T06:19:16.834Z,95179.06
2022-07-29T06:21:44.569Z,95170.66
2022-07-29T06:24:15.774Z,95176.94
2022-07-29T06:26:43.396Z,95169.25
2022-07-29T06:29:11.709Z,95164.50
2022-07-29T06:31:38.936Z,95162.31
2022-07-29T06:34:05.667Z,95160.06
2022-07-29T06:36:35.880Z,95164.03
2022-07-29T06:39:08.632Z,95167.75
2022-07-29T06:41:36.539Z,95173.56
2022-07-29T06:44:03.570Z,95167.19
2022-07-29T06:46:30.272Z,95166.28
2022-07-29T06:48:56.980Z,95163.09
2022-07-29T06:51:24.257Z,95167.91
2022-07-29T06:53:58.258Z,95162.63
2022-07-29T06:56:26.687Z,95162.47
2022-07-29T06:58:53.356Z,95158.31
2022-07-29T07:01:20.859Z,95155.22
2022-07-29T07:03:48.875Z,95156.91
2022-07-29T07:06:15.724Z,95153.38
2022-07-29T07:08:42.454Z,95153.22
2022-07-29T07:11:09.734Z,95158.75
2022-07-29T07:13:36.903Z,95156.50
2022-07-29T07:16:04.982Z,95149.22
2022-07-29T07:18:31.763Z,95139.84
2022-07-29T07:20:58.929Z,95154.72
2022-07-29T07:23:26.690Z,95154.94
2022-07-29T07:25:53.776Z,95156.53
2022-07-29T07:28:24.547Z,95158.59
2022-07-29T07:30:52.692Z,95146.81
2022-07-29T07:33:19.552Z,95151.44
2022-07-29T07:35:46.327Z,95147.81
2022-07-29T07:38:13.080Z,95145.13
2022-07-29T07:40:39.988Z,95145.72
2022-07-29T07:43:06.711Z,95148.28
2022-07-29T07:45:38.151Z,95147.56
2022-07-29T07:48:05.817Z,95159.81
2022-07-29T07:50:32.993Z,95140.16
2022-07-29T07:53:00.634Z,95151.22
2022-07-29T07:55:27.563Z,95134.88
2022-07-29T07:57:55.967Z,95141.41
2022-07-29T08:00:23.868Z,95131.19
2022-07-29T08:02:51.222Z,95129.75
2022-07-29T08:05:18.399Z,95127.50
2022-07-29T08:07:46.854Z,95135.19
2022-07-29T08:10:15.251Z,95129.00
2022-07-29T08:12:42.713Z,95133.28
2022-07-29T08:15:09.898Z,95114.75
2022-07-29T08:17:36.626Z,95135.66
2022-07-29T08:20:03.876Z,95144.19
2022-07-29T08:22:30.558Z,95142.22
2022-07-29T08:24:57.243Z,95142.81
2022-07-29T08:27:43.042Z,95141.91
2022-07-29T08:30:11.350Z,95138.59
2022-07-29T08:32:53.111Z,95137.09
2022-07-29T08:35:23.450Z,95148.97
2022-07-29T08:37:50.330Z,95134.66
2022-07-29T08:40:17.327Z,95134.09
2022-07-29T08:42:44.033Z,95133.03
2022-07-29T08:45:10.900Z,95131.91
2022-07-29T08:47:40.812Z,95134.13
2022-07-29T08:50:09.674Z,95118.91
2022-07-29T08:52:38.318Z,95132.34
2022-07-29T08:55:09.991Z,95132.34
2022-07-29T08:57:37.405Z,95125.84
2022-07-29T09:00:11.762Z,95114.28
2022-07-29T09:02:46.750Z,95121.88
2022-07-29T09:05:14.460Z,95119.22
2022-07-29T09:07:44.290Z,95122.88
2022-07-29T09:10:11.440Z,95117.50
2022-07-29T09:12:38.491Z,95113.41
2022-07-29T09:15:05.503Z,95117.06
2022-07-29T09:17:46.441Z,95107.03
2022-07-29T09:20:17.150Z,95110.41
2022-07-29T09:22:43.933Z,95110.13
2022-07-29T09:25:13.280Z,95103.03
2022-07-29T09:27:40.104Z,95103.53
2022-07-29T09:30:11.726Z,95108.34
2022-07-29T09:33:04.416Z,95100.09
2022-07-29T09:35:31.796Z,95094.38
2022-07-29T09:37:58.710Z,95093.03
2022-07-29T09:40:28.619Z,95089.50
2022-07-29T09:42:59.329Z,95100.78
2022-07-29T09:45:29.300Z,95098.97
2022-07-29T09:47:58.451Z,95100.75
2022-07-29T09:50:39.878Z,95087.59
2022-07-29T09:53:06.790Z,95087.28
2022-07-29T09:55:33.602Z,95081.41
2022-07-29T09:58:21.696Z,95084.97
2022-07-29T10:00:50.746Z,95087.03
2022-07-29T10:03:18.426Z,95088.50
2022-07-29T10:05:46.188Z,95075.38
2022-07-29T10:08:13.732Z,95070.44
2022-07-29T10:10:45.567Z,95074.22
2022-07-29T10:13:16.106Z,95060.09
2022-07-29T10:15:46.837Z,95060.28
2022-07-29T10:18:15.314Z,95055.81
2022-07-29T10:20:42.528Z,95065.03
2022-07-29T10:23:10.008Z,95058.66
2022-07-29T10:25:36.652Z,95058.28
2022-07-29T10:28:03.884Z,95056.50
2022-07-29T10:30:30.709Z,95062.41
2022-07-29T10:33:22.100Z,95045.53
2022-07-29T10:36:07.451Z,95044.66
2022-07-29T10:39:08.164Z,95035.94
2022-07-29T10:41:48.127Z,95037.38
2022-07-29T10:44:23.109Z,95036.16
2022-07-29T10:46:51.738Z,95027.59
2022-07-29T10:49:24.886Z,95040.31
2022-07-29T10:52:02.529Z,95024.91
2022-07-29T10:54:36.343Z,95023.03
2022-07-29T10:57:14.068Z,95018.88
2022-07-29T10:59:42.904Z,95010.44
2022-07-29T11:02:46.928Z,95016.94
2022-07-29T11:05:19.950Z,95012.53
2022-07-29T11:08:19.641Z,95014.78
2022-07-29T11:11:08.103Z,95007.06
2022-07-29T11:13:49.422Z,95004.41
2022-07-29T11:16:20.112Z,94997.19
2022-07-29T11:19:06.370Z,95000.44
2022-07-29T11:21:55.042Z,94998.91
2022-07-29T11:24:33.052Z,95001.00
2022-07-29T11:27:13.299Z,94992.09
2022-07-29T11:29:48.363Z,94992.41
2022-07-29T11:32:22.852Z,94986.63
2022-07-29T11:35:17.194Z,94998.13
2022-07-29T11:38:08.674Z,94987.88
2022-07-29T11:40:37.846Z,94989.59
2022-07-29T11:43:07.280Z,94989.47
2022-07-29T11:45:48.113Z,94975.81
2022-07-29T11:48:31.323Z,94983.28
2022-07-29T11:51:00.412Z,94970.97
2022-07-29T11:53:28.799Z,94974.97
2022-07-29T11:56:00.271Z,94962.78
2022-07-29T11:58:28.362Z,94975.16
2022-07-29T12:00:56.306Z,94984.19
2022-07-29T12:03:34.937Z,94962.28
2022-07-29T12:06:02.647Z,94973.06
2022-07-29T12:08:29.312Z,94971.31
2022-07-29T12:10:55.947Z,94954.63
2022-07-29T12:13:22.941Z,94969.94
2022-07-29T12:16:04.977Z,94967.56
2022-07-29T12:18:32.176Z,94971.34
2022-07-29T12:21:04.992Z,94956.28
2022-07-29T12:23:35.722Z,94968.59
2022-07-29T12:26:07.467Z,94961.47
2022-07-29T12:28:40.806Z,94968.25
2022-07-29T12:31:15.098Z,94959.00
2022-07-29T12:34:01.959Z,94950.22
2022-07-29T12:36:28.741Z,94954.19
2022-07-29T12:38:55.543Z,94942.63
2022-07-29T12:41:23.259Z,94950.28
2022-07-29T12:43:55.108Z,94941.34
2022-07-29T12:46:22.153Z,94954.13
2022-07-29T12:48:55.953Z,94945.63
2022-07-29T12:51:32.079Z,94943.72
2022-07-29T12:54:14.440Z,94937.53
2022-07-29T12:56:44.479Z,94927.00
2022-07-29T12:59:18.735Z,94928.41
2022-07-29T13:01:48.989Z,94913.44
2022-07-29T13:04:33.721Z,94926.28
2022-07-29T13:07:09.200Z,94921.56
2022-07-29T13:09:42.990Z,94917.31
2022-07-29T13:12:11.861Z,94913.94
2022-07-29T13:14:39.890Z,94909.88
2022-07-29T13:17:06.597Z,94913.19
2022-07-29T13:19:41.555Z,94908.41
2022-07-29T13:22:13.118Z,94920.94
2022-07-29T13:24:50.275Z,94923.59
2022-07-29T13:27:21.972Z,94897.06
2022-07-29T13:29:52.154Z,94897.06
2022-07-29T13:32:19.933Z,94892.91
2022-07-29T13:34:55.765Z,94895.75
2022-07-29T13:37:22.519Z,94892.63
2022-07-29T13:39:53.073Z,94900.19
2022-07-29T13:42:20.233Z,94896.97
2022-07-29T13:44:47.010Z,94891.13
2022-07-29T13:47:13.931Z,94886.47
2022-07-29T13:49:40.594Z,94886.81
2022-07-29T13:52:08.391Z,94880.91
2022-07-29T13:54:42.131Z,94871.31
2022-07-29T13:57:11.838Z,94897.13
2022-07-29T13:59:43.018Z,94888.88
2022-07-29T14:02:10.792Z,94890.34
2022-07-29T14:04:39.645Z,94890.97
2022-07-29T14:07:06.958Z,94890.84
2022-07-29T14:09:41.447Z,94897.22
2022-07-29T14:12:09.203Z,94903.19
2022-07-29T14:14:37.440Z,94891.19
2022-07-29T14:17:04.563Z,94886.25
2022-07-29T14:19:33.050Z,94883.41
2022-07-29T14:22:00.204Z,94898.22
2022-07-29T14:24:27.173Z,94888.88
2022-07-29T14:26:53.989Z,94875.59
2022-07-29T14:29:20.806Z,94893.94
2022-07-29T14:31:47.515Z,94887.41
2022-07-29T14:34:14.209Z,94890.28
2022-07-29T14:36:40.870Z,94884.59
2022-07-29T14:39:07.836Z,94893.19
2022-07-29T14:41:34.526Z,94893.94
2022-07-29T14:44:01.735Z,94885.34
2022-07-29T14:46:29.028Z,94884.44
2022-07-29T14:48:55.822Z,94888.44
2022-07-29T14:51:22.503Z,94886.91
2022-07-29T14:53:49.204Z,94887.88
2022-07-29T14:56:35.997Z,94877.59
2022-07-29T14:59:02.579Z,94876.47
2022-07-29T15:01:30.194Z,94878.94
2022-07-29T15:03:59.783Z,94886.78
2022-07-29T15:06:27.504Z,94877.44
2022-07-29T15:08:54.873Z,94878.69
2022-07-29T15:11:21.618Z,94881.91
2022-07-29T15:13:48.276Z,94880.94
2022-07-29T15:16:14.943Z,94888.41
2022-07-29T15:18:42.567Z,94876.63
2022-07-29T15:21:09.352Z,94880.41
2022-07-29T15:23:39.609Z,94873.91
2022-07-29T15:26:06.296Z,94876.72
2022-07-29T15:28:33.046Z,94873.06
2022-07-29T15:30:59.696Z,94859.06
2022-07-29T15:33:27.054Z,94866.31
2022-07-29T15:35:53.637Z,94871.31
2022-07-29T15:38:20.481Z,94871.44
2022-07-29T15:40:55.831Z,94872.91
2022-07-29T15:43:22.952Z,94864.41
2022-07-29T15:46:08.676Z,94870.78
2022-07-29T15:48:39.290Z,94863.94
2022-07-29T15:51:06.234Z,94866.38
2022-07-29T15:53:35.266Z,94863.63
2022-07-29T15:56:02.206Z,94868.50
2022-07-29T15:58:29.051Z,94861.41
2022-07-29T16:00:55.987Z,94869.16
2022-07-29T16:03:23.005Z,94873.50
2022-07-29T16:05:49.679Z,94874.84
2022-07-29T16:08:16.405Z,94874.00
2022-07-29T16:10:43.033Z,94879.63
2022-07-29T16:13:09.678Z,94873.56
2022-07-29T16:15:36.277Z,94885.28
2022-07-29T16:18:03.106Z,94871.81
2022-07-29T16:20:30.216Z,94881.72
2022-07-29T16:22:57.027Z,94879.22
2022-07-29T16:25:38.411Z,94875.69
2022-07-29T16:28:10.763Z,94877.47
2022-07-29T16:30:37.521Z,94884.28
2022-07-29T16:33:08.195Z,94882.34
2022-07-29T16:35:39.647Z,94886.06
2022-07-29T16:38:06.817Z,94882.91
2022-07-29T16:40:33.487Z,94888.09
2022-07-29T16:43:00.239Z,94893.28
2022-07-29T16:45:28.044Z,94885.47
2022-07-29T16:48:01.152Z,94889.00
2022-07-29T16:50:28.874Z,94891.47
2022-07-29T16:52:56.215Z,94887.69
2022-07-29T16:55:23.358Z,94888.53
2022-07-29T16:57:52.625Z,94895.63
2022-07-29T17:00:21.124Z,94896.34
2022-07-29T17:02:48.489Z,94894.88
2022-07-29T17:05:15.918Z,94893.72
2022-07-29T17:07:42.885Z,94888.09
2022-07-29T17:10:10.474Z,94884.22
2022-07-29T17:12:41.221Z,94869.72
2022-07-29T17:15:10.830Z,94892.78
2022-07-29T17:17:38.728Z,94892.78
2022-07-29T17:20:08.838Z,94895.16
2022-07-29T17:22:35.889Z,94898.00
2022-07-29T17:25:04.701Z,94899.16
2022-07-29T17:27:32.297Z,94900.03
2022-07-29T17:29:59.255Z,94901.66
2022-07-29T17:32:25.923Z,94899.84
2022-07-29T17:34:52.892Z,94904.31
2022-07-29T17:37:19.782Z,94896.28
2022-07-29T17:39:46.452Z,94890.91
2022-07-29T17:42:14.360Z,94902.75
2022-07-29T17:44:41.547Z,94901.38
2022-07-29T17:47:10.732Z,94902.34
2022-07-29T17:49:43.785Z,94897.38
2022-07-29T17:52:10.577Z,94908.47
2022-07-29T17:54:37.248Z,94900.81
2022-07-29T17:57:04.083Z,94902.72
2022-07-29T17:59:30.882Z,94897.78
2022-07-29T18:01:57.625Z,94908.34
2022-07-29T18:04:25.048Z,94899.88
2022-07-29T18:06:51.760Z,94903.97
2022-07-29T18:09:18.669Z,94898.78
2022-07-29T18:11:46.280Z,94894.66
2022-07-29T18:14:13.632Z,94918.72
2022-07-29T18:16:40.694Z,94920.78
2022-07-29T18:19:07.545Z,94920.84
2022-07-29T18:21:50.984Z,94920.03
2022-07-29T18:24:25.571Z,94922.81
2022-07-29T18:26:52.430Z,94918.06
2022-07-29T18:29:19.159Z,94932.69
2022-07-29T18:31:45.828Z,94939.16
2022-07-29T18:34:12.509Z,94936.66
2022-07-29T18:36:39.241Z,94930.13
2022-07-29T18:39:05.873Z,94935.16
2022-07-29T18:41:33.881Z,94939.03
2022-07-29T18:44:00.998Z,94923.69
2022-07-29T18:46:27.967Z,94923.94
2022-07-29T18:48:57.353Z,94941.19
2022-07-29T18:51:23.995Z,94938.19
2022-07-29T18:53:50.626Z,94953.50
2022-07-29T18:56:17.345Z,94940.28
2022-07-29T18:58:43.959Z,94952.19
2022-07-29T19:01:14.740Z,94945.84
2022-07-29T19:03:43.418Z,94953.69
2022-07-29T19:06:10.071Z,94956.50
2022-07-29T19:08:36.700Z,94962.09
2022-07-29T19:11:03.586Z,94962.81
2022-07-29T19:13:30.977Z,94962.66
2022-07-29T19:15:57.708Z,94958.56
2022-07-29T19:18:24.755Z,94960.44
2022-07-29T19:20:51.405Z,94970.28
2022-07-29T19:23:18.501Z,94971.25
2022-07-29T19:25:53.594Z,94976.44
2022-07-29T19:28:21.373Z,94979.63
2022-07-29T19:30:48.306Z,94981.25
2022-07-29T19:33:17.499Z,94964.13
2022-07-29T19:35:45.355Z,94981.44
2022-07-29T19:38:11.983Z,94968.41
2022-07-29T19:40:41.338Z,94974.00
2022-07-29T19:43:50.586Z,94984.06
2022-07-29T19:45:55.131Z,94983.53
2022-07-29T19:48:21.728Z,94982.00
2022-07-29T19:50:48.312Z,94960.06
2022-07-29T19:53:15.004Z,94986.13
2022-07-29T19:55:42.470Z,94983.50
2022-07-29T19:58:09.319Z,94982.59
2022-07-29T20:00:35.977Z,94983.72
2022-07-29T20:03:04.702Z,94985.53
2022-07-29T20:05:31.591Z,94969.56
2022-07-29T20:07:58.638Z,94987.41
2022-07-29T20:10:25.580Z,94982.75
2022-07-29T20:12:53.907Z,94976.63
2022-07-29T20:15:22.201Z,94976.81
2022-07-29T20:17:48.808Z,94976.81
2022-07-29T20:20:15.407Z,94969.72
2022-07-29T20:22:42.104Z,94977.53
2022-07-29T20:25:09.974Z,94974.94
2022-07-29T20:27:39.398Z,94986.09
2022-07-29T20:30:07.300Z,94974.34
2022-07-29T20:32:35.009Z,94985.16
2022-07-29T20:35:01.706Z,94986.44
2022-07-29T20:37:28.366Z,94970.25
2022-07-29T20:39:54.984Z,94981.59
2022-07-29T20:42:21.641Z,94978.44
2022-07-29T20:44:50.695Z,94985.31
2022-07-29T20:47:17.377Z,94988.66
2022-07-29T20:49:44.138Z,94996.44
2022-07-29T20:52:10.769Z,94976.31
2022-07-29T20:54:37.420Z,94986.00
2022-07-29T20:57:04.291Z,94989.91
2022-07-29T20:59:30.852Z,94986.00
2022-07-29T21:01:57.620Z,94988.81
2022-07-29T21:04:30.603Z,94990.84
2022-07-29T21:06:58.153Z,94993.44
2022-07-29T21:09:24.913Z,94989.53
2022-07-29T21:11:51.568Z,94979.84
2022-07-29T21:14:38.142Z,94982.28
2022-07-29T21:17:07.140Z,94988.75
2022-07-29T21:19:34.719Z,94980.41
2022-07-29T21:22:01.514Z,94984.13
2022-07-29T21:24:28.136Z,94981.16
2022-07-29T21:27:20.765Z,94980.34
2022-07-29T21:29:48.380Z,94980.66
2022-07-29T21:32:28.430Z,94982.69
2022-07-29T21:34:56.779Z,94987.13
2022-07-29T21:37:23.436Z,94998.44
2022-07-29T21:39:50.063Z,94988.22
2022-07-29T21:42:16.958Z,94989.84
2022-07-29T21:44:44.087Z,94995.59
2022-07-29T21:47:11.833Z,94993.09
2022-07-29T21:49:38.643Z,94983.72
2022-07-29T21:52:05.721Z,94984.03
2022-07-29T21:54:34.720Z,94992.38
2022-07-29T21:57:01.487Z,94982.38
2022-07-29T21:59:28.196Z,94991.59
2022-07-29T22:01:54.921Z,94977.97
2022-07-29T22:04:21.906Z,94984.44
2022-07-29T22:06:48.615Z,94988.91
2022-07-29T22:09:15.384Z,94973.84
2022-07-29T22:11:42.531Z,94971.56
2022-07-29T22:14:09.417Z,94985.88
2022-07-29T22:16:36.177Z,94992.13
2022-07-29T22:19:03.923Z,94981.53
2022-07-29T22:21:30.973Z,94983.31
2022-07-29T22:23:58.175Z,94990.91
2022-07-29T22:26:24.860Z,94998.72
2022-07-29T22:28:51.605Z,94990.50
2022-07-29T22:31:18.741Z,94983.50
2022-07-29T22:33:45.783Z,95002.84
2022-07-29T22:36:12.633Z,95003.16
2022-07-29T22:38:39.309Z,94994.63
2022-07-29T22:41:05.999Z,94989.63
2022-07-29T22:43:32.605Z,94996.53
2022-07-29T22:45:59.434Z,95007.13
2022-07-29T22:48:26.035Z,94997.13
2022-07-29T22:50:52.709Z,94998.84
2022-07-29T22:53:19.293Z,94983.56
2022-07-29T22:55:45.960Z,94991.56
2022-07-29T22:58:12.586Z,95004.41
2022-07-29T23:00:39.301Z,94999.72
2022-07-29T23:03:06.036Z,94987.97
2022-07-29T23:05:32.842Z,94996.38
2022-07-29T23:08:00.070Z,94999.72
2022-07-29T23:10:26.942Z,94997.13
2022-07-29T23:12:53.646Z,94996.25
2022-07-29T23:15:20.275Z,95005.69
2022-07-29T23:17:47.041Z,95004.53
2022-07-29T23:20:14.797Z,95006.78
2022-07-29T23:22:41.889Z,95005.81
2022-07-29T23:25:08.901Z,94993.16
2022-07-29T23:27:36.359Z,95000.13
2022-07-29T23:30:04.932Z,95000.75
2022-07-29T23:32:31.721Z,94997.56
2022-07-29T23:34:58.349Z,95004.47
2022-07-29T23:37:25.240Z,95008.53
2022-07-29T23:39:53.732Z,95000.00
2022-07-29T23:42:20.429Z,95001.69
2022-07-29T23:44:47.101Z,94989.22
2022-07-29T23:47:13.805Z,95003.91
2022-07-29T23:49:40.469Z,94998.84
2022-07-29T23:52:07.150Z,94995.13
2022-07-29T23:54:33.957Z,94991.78
2022-07-29T23:57:01.211Z,94994.41
2022-07-29T23:59:28.078Z,94999.63
